Time;durP1;ratioP1;P1;durP2;ratioP2;P2;SDS_P1;SDS_P2;PMS_P1;PMS_P2;Temp;Humidity;BMP_temperature;BMP_pressure;BME280_temperature;BME280_humidity;BME280_pressure;Samples;Min_cycle;Max_cycle;Signal;HPM_P1;HPM_P2
2023/12/08 00:00:07;;;;;;;27.05;13.80;;;;;;;1.53;88.92;95310.16;5094135;28;20040;-83
2023/12/08 00:02:33;;;;;;;28.42;13.32;;;;;;;1.15;89.53;95239.69;5091702;28;20036;-83
2023/12/08 00:04:59;;;;;;;26.15;13.50;;;;;;;0.56;89.24;95140.16;5093672;28;20055;-82
2023/12/08 00:07:24;;;;;;;26.15;13.57;;;;;;;1.18;89.05;95220.19;5091894;28;20063;-82
2023/12/08 00:09:50;;;;;;;24.60;12.63;;;;;;;0.44;88.75;95110.53;5091036;28;20439;-82
2023/12/08 00:12:15;;;;;;;23.13;13.48;;;;;;;1.37;88.54;95287.19;5093516;28;20032;-83
2023/12/08 00:14:41;;;;;;;25.92;13.73;;;;;;;-0.15;88.37;95055.16;5113684;28;20044;-83
2023/12/08 00:17:07;;;;;;;25.08;13.85;;;;;;;-0.23;87.81;95011.09;5085184;28;20035;-82
2023/12/08 00:19:32;;;;;;;26.52;13.15;;;;;;;0.67;87.52;95162.97;5092329;28;20036;-82
2023/12/08 00:21:58;;;;;;;25.10;12.05;;;;;;;0.57;88.07;95162.63;5093095;28;20046;-82
2023/12/08 00:24:24;;;;;;;20.08;12.23;;;;;;;0.44;87.80;95127.00;5094139;28;20078;-82
2023/12/08 00:26:50;;;;;;;22.30;13.02;;;;;;;1.59;87.66;95312.94;5092727;28;20055;-81
2023/12/08 00:29:19;;;;;;;27.35;12.32;;;;;;;0.80;87.66;95212.47;5095061;28;20036;-82
2023/12/08 00:31:45;;;;;;;28.45;12.80;;;;;;;1.35;88.64;95283.19;5093277;28;20050;-81
2023/12/08 00:34:11;;;;;;;23.83;12.65;;;;;;;1.51;88.40;95287.88;5094541;28;20038;-83
2023/12/08 00:36:36;;;;;;;23.65;12.88;;;;;;;0.27;87.68;95087.59;5110232;28;20126;-81
2023/12/08 00:39:02;;;;;;;24.20;12.93;;;;;;;0.72;87.42;95178.78;5088699;28;20356;-82
2023/12/08 00:41:27;;;;;;;25.63;12.30;;;;;;;1.08;87.03;95219.88;5075516;28;20384;-82
2023/12/08 00:43:53;;;;;;;23.23;13.52;;;;;;;0.10;86.83;95076.06;5082881;28;20027;-81
2023/12/08 00:46:19;;;;;;;21.88;12.30;;;;;;;1.30;87.27;95288.25;5095791;28;20036;-82
2023/12/08 00:48:44;;;;;;;26.30;12.25;;;;;;;1.39;87.59;95306.03;5092573;28;20530;-83
2023/12/08 00:51:13;;;;;;;24.80;13.43;;;;;;;0.53;87.85;95171.91;5095279;28;20032;-82
2023/12/08 00:53:42;;;;;;;23.98;12.70;;;;;;;-0.10;88.33;95049.31;5094097;28;20032;-83
2023/12/08 00:56:08;;;;;;;23.50;12.10;;;;;;;1.40;86.91;95299.00;5093606;28;20046;-83
2023/12/08 00:58:34;;;;;;;20.58;11.50;;;;;;;0.28;87.42;95132.72;5093303;28;20547;-87
2023/12/08 01:01:00;;;;;;;17.20;10.18;;;;;;;0.47;86.78;95191.78;5077592;28;20042;-82
2023/12/08 01:03:25;;;;;;;21.05;11.13;;;;;;;0.11;87.30;95105.53;5107581;28;20040;-82
2023/12/08 01:05:51;;;;;;;21.05;11.52;;;;;;;1.21;87.72;95277.25;5110970;28;20040;-82
2023/12/08 01:08:16;;;;;;;19.85;11.70;;;;;;;1.30;88.07;95280.41;5096335;28;20040;-81
2023/12/08 01:10:42;;;;;;;19.83;10.40;;;;;;;-1.24;86.51;94867.88;5097041;28;20160;-83
2023/12/08 01:13:08;;;;;;;24.30;10.52;;;;;;;1.35;87.53;95278.75;5095184;28;20086;-81
2023/12/08 01:15:33;;;;;;;16.15;9.75;;;;;;;0.87;86.48;95225.47;5093838;28;20051;-83
2023/12/08 01:17:59;;;;;;;19.52;10.13;;;;;;;0.33;86.26;95157.16;5095559;28;20036;-82
2023/12/08 01:20:24;;;;;;;17.17;9.10;;;;;;;0.80;86.47;95194.19;5084884;28;20059;-83
2023/12/08 01:22:52;;;;;;;18.10;10.23;;;;;;;1.60;86.33;95307.50;5074318;28;20124;-81
2023/12/08 01:25:17;;;;;;;20.38;10.70;;;;;;;0.65;86.64;95160.56;5090810;28;20125;-82
2023/12/08 01:27:43;;;;;;;17.17;9.43;;;;;;;0.31;85.35;95117.44;5073904;28;20108;-82
2023/12/08 01:30:10;;;;;;;17.30;9.07;;;;;;;1.16;85.80;95245.72;5087914;28;20032;-82
2023/12/08 01:32:35;;;;;;;16.77;9.25;;;;;;;1.15;85.96;95231.88;5094248;28;20383;-82
2023/12/08 01:35:01;;;;;;;20.42;11.85;;;;;;;0.53;86.30;95127.53;5093604;28;20047;-81
2023/12/08 01:37:26;;;;;;;19.15;9.70;;;;;;;0.93;85.23;95190.66;5091635;28;20028;-82
2023/12/08 01:39:52;;;;;;;19.92;9.80;;;;;;;1.20;84.83;95233.84;5075182;28;20050;-81
2023/12/08 01:42:17;;;;;;;17.48;9.65;;;;;;;1.61;84.36;95309.06;5081964;28;20544;-81
2023/12/08 01:44:43;;;;;;;18.70;9.55;;;;;;;1.70;84.43;95312.22;5099893;28;20051;-82
2023/12/08 01:47:09;;;;;;;20.40;10.75;;;;;;;1.39;84.48;95253.78;5097311;28;20027;-82
2023/12/08 01:49:37;;;;;;;20.55;10.60;;;;;;;0.92;83.87;95202.13;5097914;28;20035;-83
2023/12/08 01:52:04;;;;;;;18.30;9.65;;;;;;;1.09;84.62;95252.81;5097275;28;20548;-81
2023/12/08 01:54:31;;;;;;;19.33;9.55;;;;;;;1.17;85.36;95276.88;5098361;28;20118;-83
2023/12/08 01:56:56;;;;;;;19.48;9.52;;;;;;;1.08;85.78;95272.09;5097828;28;20139;-82
2023/12/08 01:59:22;;;;;;;19.33;10.57;;;;;;;1.11;85.98;95297.81;5098745;28;20036;-83
2023/12/08 02:01:48;;;;;;;22.08;10.68;;;;;;;1.06;86.60;95303.69;5084801;28;20044;-82
2023/12/08 02:04:14;;;;;;;21.85;10.88;;;;;;;0.82;86.94;95243.59;5078249;28;20036;-83
2023/12/08 02:06:39;;;;;;;19.98;10.18;;;;;;;0.51;86.02;95213.06;5095486;28;20043;-81
2023/12/08 02:09:07;;;;;;;19.83;10.13;;;;;;;0.76;86.49;95263.50;5099147;28;20028;-85
2023/12/08 02:11:34;;;;;;;20.63;10.70;;;;;;;1.01;87.06;95284.41;5098577;28;20035;-81
2023/12/08 02:14:01;;;;;;;30.98;13.98;;;;;;;1.20;86.63;95308.81;5097469;28;20059;-81
2023/12/08 02:16:33;;;;;;;21.73;11.90;;;;;;;0.21;86.36;95134.56;5098430;28;20078;-82
2023/12/08 02:18:59;;;;;;;24.50;11.07;;;;;;;-1.45;86.30;94908.97;5097084;28;20032;-81
2023/12/08 02:21:26;;;;;;;21.83;11.77;;;;;;;-0.89;86.75;95019.25;5099748;28;20118;-81
2023/12/08 02:23:52;;;;;;;22.10;11.63;;;;;;;0.74;87.11;95245.44;5088549;28;20032;-81
2023/12/08 02:26:19;;;;;;;24.38;12.20;;;;;;;0.97;86.60;95304.94;5093651;28;20387;-83
2023/12/08 02:28:45;;;;;;;25.98;13.02;;;;;;;0.85;87.11;95304.00;5090803;28;20593;-82
2023/12/08 02:31:15;;;;;;;20.88;11.20;;;;;;;0.45;87.22;95250.44;5098026;28;20039;-82
2023/12/08 02:33:45;;;;;;;19.38;11.98;;;;;;;0.76;87.10;95300.06;5098570;28;20055;-81
2023/12/08 02:36:14;;;;;;;22.65;11.52;;;;;;;0.92;86.73;95309.19;5096616;28;20478;-82
2023/12/08 02:38:41;;;;;;;22.95;11.05;;;;;;;0.53;86.78;95248.38;5078320;28;20032;-83
2023/12/08 02:41:07;;;;;;;24.30;11.75;;;;;;;0.56;86.14;95223.66;5080448;28;20052;-83
2023/12/08 02:43:33;;;;;;;24.70;11.90;;;;;;;0.05;85.77;95150.72;5078965;28;20044;-82
2023/12/08 02:45:58;;;;;;;21.67;10.75;;;;;;;0.70;85.15;95257.28;5095541;28;20036;-82
2023/12/08 02:48:24;;;;;;;21.80;11.52;;;;;;;0.27;85.31;95176.25;5095072;28;20040;-82
2023/12/08 02:50:49;;;;;;;21.17;11.85;;;;;;;0.29;84.72;95161.22;5094126;28;20122;-83
2023/12/08 02:53:15;;;;;;;21.17;10.77;;;;;;;1.07;85.06;95299.22;5114014;28;20039;-81
2023/12/08 02:55:40;;;;;;;21.85;10.80;;;;;;;0.98;84.69;95300.53;5095608;28;20047;-83
2023/12/08 02:58:06;;;;;;;24.98;10.65;;;;;;;1.31;84.91;95321.19;5097934;28;20056;-81
2023/12/08 03:00:31;;;;;;;20.88;10.80;;;;;;;1.13;84.87;95314.88;5091884;28;20040;-81
2023/12/08 03:02:57;;;;;;;19.67;9.95;;;;;;;0.83;85.12;95295.59;5091714;28;20040;-82
2023/12/08 03:05:22;;;;;;;23.45;10.32;;;;;;;0.05;85.59;95180.19;5094935;28;20040;-81
2023/12/08 03:07:48;;;;;;;23.67;10.65;;;;;;;-0.17;86.11;95137.19;5094838;28;20471;-83
2023/12/08 03:10:14;;;;;;;22.10;10.85;;;;;;;0.32;85.79;95220.78;5076393;28;20032;-82
2023/12/08 03:12:39;;;;;;;19.13;10.52;;;;;;;0.06;85.81;95181.81;5077018;28;20032;-83
2023/12/08 03:15:06;;;;;;;19.70;9.77;;;;;;;-0.08;85.48;95157.56;5076779;28;20060;-81
2023/12/08 03:17:32;;;;;;;20.92;10.73;;;;;;;0.95;85.24;95308.75;5095558;28;20024;-83
2023/12/08 03:19:57;;;;;;;21.02;11.07;;;;;;;0.66;85.35;95250.09;5097080;28;20036;-82
2023/12/08 03:22:23;;;;;;;22.45;11.80;;;;;;;0.69;85.14;95273.16;5096442;28;20040;-81
2023/12/08 03:24:48;;;;;;;19.42;10.07;;;;;;;0.00;85.43;95167.00;5113462;28;20031;-82
2023/12/08 03:27:14;;;;;;;19.65;10.63;;;;;;;0.86;85.14;95289.94;5087914;28;20033;-83
2023/12/08 03:29:40;;;;;;;19.50;10.57;;;;;;;1.01;84.89;95305.31;5077784;28;20039;-82
2023/12/08 03:32:06;;;;;;;22.30;10.52;;;;;;;0.86;84.63;95276.88;5103938;28;20032;-82
2023/12/08 03:34:32;;;;;;;20.08;10.10;;;;;;;0.82;84.76;95267.09;5096568;28;20091;-81
2023/12/08 03:36:58;;;;;;;21.48;11.38;;;;;;;0.12;84.48;95141.84;5095646;28;20044;-82
2023/12/08 03:39:23;;;;;;;19.48;11.10;;;;;;;-0.03;84.02;95129.09;5096669;28;20063;-82
2023/12/08 03:41:48;;;;;;;20.33;10.80;;;;;;;-0.03;85.08;95116.06;5096203;28;20111;-82
2023/12/08 03:44:14;;;;;;;20.00;10.80;;;;;;;0.44;84.33;95160.91;5096912;28;20028;-85
2023/12/08 03:46:43;;;;;;;23.90;10.95;;;;;;;1.08;84.80;95288.59;5078914;28;20131;-82
2023/12/08 03:49:09;;;;;;;24.85;11.43;;;;;;;0.61;84.95;95189.91;5078819;28;20415;-82
2023/12/08 03:51:35;;;;;;;22.48;11.30;;;;;;;-0.71;84.89;95002.16;5096118;28;20366;-82
2023/12/08 03:54:00;;;;;;;20.45;11.45;;;;;;;0.63;84.55;95206.16;5111397;27;20024;-81
2023/12/08 03:56:26;;;;;;;22.85;11.35;;;;;;;-0.53;84.39;94991.84;5097825;28;20135;-81
2023/12/08 03:58:51;;;;;;;21.60;11.32;;;;;;;-0.07;83.72;95086.19;5090483;28;20025;-82
2023/12/08 04:01:17;;;;;;;21.55;11.57;;;;;;;1.02;84.74;95271.16;5085214;28;20047;-82
2023/12/08 04:03:43;;;;;;;24.23;11.50;;;;;;;1.08;84.58;95262.47;5102506;28;20063;-83
2023/12/08 04:06:08;;;;;;;23.40;11.02;;;;;;;0.68;84.22;95216.78;5112044;28;20040;-82
2023/12/08 04:08:34;;;;;;;23.65;10.85;;;;;;;0.90;84.55;95264.22;5096717;28;20419;-83
2023/12/08 04:10:59;;;;;;;19.45;9.95;;;;;;;0.19;84.15;95157.44;5097466;28;20516;-82
2023/12/08 04:13:25;;;;;;;18.85;10.55;;;;;;;0.20;84.20;95159.84;5097049;28;20035;-81
2023/12/08 04:15:51;;;;;;;18.63;9.52;;;;;;;0.45;84.46;95208.69;5095723;28;20545;-82
2023/12/08 04:18:16;;;;;;;22.45;11.45;;;;;;;-1.62;84.47;94869.63;5102823;28;20042;-83
2023/12/08 04:20:42;;;;;;;19.85;10.77;;;;;;;0.44;84.45;95192.22;5112338;28;20035;-84
2023/12/08 04:23:07;;;;;;;21.42;10.40;;;;;;;0.66;84.88;95205.72;5115509;28;20028;-82
2023/12/08 04:25:34;;;;;;;20.23;10.68;;;;;;;0.88;84.24;95247.94;5114421;28;20032;-83
2023/12/08 04:28:00;;;;;;;15.63;9.80;;;;;;;1.01;84.71;95259.09;5114200;28;20036;-82
2023/12/08 04:30:25;;;;;;;21.80;12.15;;;;;;;1.09;84.96;95263.25;5078128;28;20104;-84
2023/12/08 04:32:51;;;;;;;18.60;9.48;;;;;;;-0.93;84.26;94952.19;5074286;28;20056;-84
2023/12/08 04:35:17;;;;;;;19.88;10.68;;;;;;;-1.16;84.63;94924.06;5096398;28;20035;-84
2023/12/08 04:37:42;;;;;;;17.88;10.10;;;;;;;1.11;84.03;95272.50;5089905;28;20025;-84
2023/12/08 04:40:08;;;;;;;19.75;10.82;;;;;;;-0.79;84.53;94946.72;5092055;28;20122;-84
2023/12/08 04:42:36;;;;;;;20.65;10.65;;;;;;;0.88;84.23;95199.16;5097534;28;20085;-84
2023/12/08 04:45:02;;;;;;;21.83;11.63;;;;;;;0.17;84.48;95102.88;5094911;28;20032;-84
2023/12/08 04:47:28;;;;;;;20.17;10.45;;;;;;;0.69;84.61;95221.75;5093626;28;20040;-84
2023/12/08 04:49:54;;;;;;;18.98;10.93;;;;;;;0.73;83.70;95212.50;5094635;28;20031;-83
2023/12/08 04:52:19;;;;;;;17.55;9.75;;;;;;;-0.14;83.55;95093.25;5096665;28;20026;-84
2023/12/08 04:54:45;;;;;;;19.40;9.98;;;;;;;0.32;84.70;95186.88;5109333;28;20034;-84
2023/12/08 04:57:10;;;;;;;18.10;10.45;;;;;;;0.36;85.27;95211.53;5112484;28;20121;-84
2023/12/08 04:59:38;;;;;;;22.58;10.20;;;;;;;0.55;84.84;95238.50;5106656;28;20084;-84
2023/12/08 05:02:04;;;;;;;19.33;11.07;;;;;;;0.62;85.24;95246.28;5100308;28;20040;-84
2023/12/08 05:04:29;;;;;;;19.70;10.23;;;;;;;0.94;85.60;95274.00;5103182;28;20028;-85
2023/12/08 05:06:55;;;;;;;19.38;10.90;;;;;;;1.05;85.09;95285.59;5105147;28;20038;-85
2023/12/08 05:09:21;;;;;;;17.88;10.23;;;;;;;0.65;85.18;95230.22;5114287;28;20024;-85
2023/12/08 05:11:46;;;;;;;21.02;11.15;;;;;;;0.09;85.49;95150.06;5107974;28;20038;-85
2023/12/08 05:14:12;;;;;;;20.75;11.05;;;;;;;-0.86;84.86;94997.22;5111740;28;20048;-85
2023/12/08 05:16:37;;;;;;;21.00;11.27;;;;;;;1.14;85.43;95306.00;5110250;28;20020;-86
2023/12/08 05:19:03;;;;;;;19.45;10.98;;;;;;;-0.29;85.54;95060.66;5113013;28;20036;-85
2023/12/08 05:21:28;;;;;;;19.98;10.40;;;;;;;0.24;84.45;95181.09;5116889;28;20083;-85
2023/12/08 05:23:54;;;;;;;19.85;10.40;;;;;;;0.42;85.09;95204.69;5092209;28;20040;-85
2023/12/08 05:26:20;;;;;;;21.20;10.63;;;;;;;-0.58;85.17;95046.38;5097592;28;20221;-85
2023/12/08 05:28:45;;;;;;;18.48;9.93;;;;;;;0.24;85.10;95181.88;5103122;28;20071;-87
2023/12/08 05:31:12;;;;;;;22.83;11.52;;;;;;;0.70;85.48;95236.41;5108287;28;20040;-87
2023/12/08 05:33:38;;;;;;;21.52;11.68;;;;;;;1.14;84.87;95308.63;5087587;28;20556;-86
2023/12/08 05:36:04;;;;;;;21.90;11.82;;;;;;;0.64;85.17;95223.41;5078071;28;20038;-87
2023/12/08 05:38:30;;;;;;;26.70;12.00;;;;;;;1.18;86.05;95311.63;5079446;28;20035;-84
2023/12/08 05:40:55;;;;;;;23.35;11.43;;;;;;;1.03;85.71;95292.84;5099515;28;20028;-86
2023/12/08 05:43:21;;;;;;;20.38;10.98;;;;;;;0.76;84.46;95253.84;5070329;28;20030;-87
2023/12/08 05:45:47;;;;;;;20.27;11.10;;;;;;;0.63;85.12;95227.81;5081084;28;20032;-89
2023/12/08 05:48:21;;;;;;;19.20;10.30;;;;;;;0.57;84.37;95223.44;5074271;28;20036;-87
2023/12/08 05:50:50;;;;;;;18.83;10.20;;;;;;;1.03;84.86;95304.09;5090287;28;20100;-86
2023/12/08 05:53:15;;;;;;;18.67;9.48;;;;;;;-0.31;84.98;95120.00;5088467;27;20032;-86
2023/12/08 05:55:41;;;;;;;18.73;9.57;;;;;;;0.10;84.44;95172.53;5078265;28;20032;-87
2023/12/08 05:58:07;;;;;;;21.40;10.25;;;;;;;0.73;85.32;95275.16;5069643;28;20028;-86
2023/12/08 06:00:33;;;;;;;22.58;10.35;;;;;;;0.69;84.67;95257.50;5076164;28;20040;-86
2023/12/08 06:02:59;;;;;;;16.40;9.02;;;;;;;0.34;83.67;95208.34;5090197;28;20103;-87
2023/12/08 06:05:25;;;;;;;20.00;8.45;;;;;;;0.45;83.06;95235.56;5098438;28;20042;-87
2023/12/08 06:07:53;;;;;;;16.88;10.07;;;;;;;0.71;84.41;95268.53;5102645;28;20024;-87
2023/12/08 06:10:22;;;;;;;17.15;9.77;;;;;;;-1.09;83.91;94982.09;5074434;28;20035;-85
2023/12/08 06:12:48;;;;;;;20.92;10.13;;;;;;;-0.45;84.28;95070.53;5076407;28;20395;-85
2023/12/08 06:15:19;;;;;;;21.73;10.52;;;;;;;-1.96;83.42;94863.72;5078336;28;20498;-85
2023/12/08 06:17:44;;;;;;;18.48;9.63;;;;;;;-1.69;83.02;94913.06;5077429;28;20607;-84
2023/12/08 06:20:11;;;;;;;19.90;9.68;;;;;;;-2.53;82.91;94788.31;5080023;28;20162;-86
2023/12/08 06:22:37;;;;;;;15.98;9.25;;;;;;;-2.16;83.72;94836.97;5082565;28;20084;-86
2023/12/08 06:25:03;;;;;;;21.30;10.85;;;;;;;1.13;83.09;95338.41;5081634;28;20043;-85
2023/12/08 06:27:28;;;;;;;20.85;10.50;;;;;;;1.01;84.59;95332.22;5075783;28;20105;-86
2023/12/08 06:29:54;;;;;;;18.98;10.05;;;;;;;0.05;83.25;95176.78;5077446;28;20031;-85
2023/12/08 06:32:19;;;;;;;17.52;8.75;;;;;;;0.92;83.10;95338.69;5080309;28;20122;-86
2023/12/08 06:34:48;;;;;;;16.38;8.82;;;;;;;1.08;83.37;95353.06;5082192;28;20080;-85
2023/12/08 06:37:14;;;;;;;20.65;9.63;;;;;;;0.15;83.96;95224.09;5085792;28;20058;-85
2023/12/08 06:39:40;;;;;;;16.63;9.32;;;;;;;0.34;83.35;95247.47;5095031;28;20039;-86
2023/12/08 06:42:06;;;;;;;22.52;10.20;;;;;;;0.43;83.58;95245.41;5090530;28;20436;-86
2023/12/08 06:44:32;;;;;;;16.15;8.93;;;;;;;1.03;83.57;95364.16;5102017;28;20032;-86
2023/12/08 06:46:58;;;;;;;23.52;10.10;;;;;;;1.09;83.88;95357.28;5100314;28;20035;-86
2023/12/08 06:49:24;;;;;;;18.63;9.55;;;;;;;1.08;83.49;95356.50;5112359;27;20392;-85
2023/12/08 06:51:49;;;;;;;17.67;9.75;;;;;;;0.00;83.09;95199.06;5078793;28;20554;-85
2023/12/08 06:54:15;;;;;;;19.63;10.18;;;;;;;0.99;83.82;95359.59;5076090;28;20032;-86
2023/12/08 06:56:44;;;;;;;20.25;10.38;;;;;;;0.33;83.09;95245.84;5080201;28;20241;-86
2023/12/08 06:59:10;;;;;;;21.20;10.00;;;;;;;-1.68;82.67;94928.44;5098791;28;20051;-86
2023/12/08 07:01:36;;;;;;;23.33;10.98;;;;;;;-0.45;83.38;95120.03;5107453;28;20036;-87
2023/12/08 07:04:05;;;;;;;20.00;10.65;;;;;;;-0.88;83.23;95043.50;5103596;28;20035;-87
2023/12/08 07:06:31;;;;;;;23.52;11.20;;;;;;;-0.21;83.99;95172.47;5096259;28;20061;-87
2023/12/08 07:08:57;;;;;;;19.67;9.85;;;;;;;-0.19;83.56;95149.63;5086613;28;20032;-87
2023/12/08 07:11:23;;;;;;;19.30;9.95;;;;;;;-1.52;83.13;94950.59;5110247;27;20650;-87
2023/12/08 07:13:51;;;;;;;21.20;9.95;;;;;;;-1.56;81.76;94973.63;5090310;28;20131;-86
2023/12/08 07:16:17;;;;;;;20.77;10.55;;;;;;;-0.54;82.55;95104.88;5098924;28;20036;-85
2023/12/08 07:18:43;;;;;;;20.20;10.52;;;;;;;-1.53;82.73;94940.41;5093587;28;20028;-87
2023/12/08 07:21:08;;;;;;;19.50;10.48;;;;;;;0.66;82.74;95294.47;5078678;28;20031;-88
2023/12/08 07:23:34;;;;;;;23.98;10.38;;;;;;;0.80;83.21;95311.66;5079003;28;20032;-88
2023/12/08 07:26:01;;;;;;;20.50;10.40;;;;;;;1.08;82.69;95372.16;5077298;28;20091;-89
2023/12/08 07:28:26;;;;;;;23.27;10.85;;;;;;;-0.84;83.34;95058.47;5076855;28;20042;-88
2023/12/08 07:30:52;;;;;;;21.95;10.18;;;;;;;-0.79;82.61;95083.91;5098917;28;20096;-87
2023/12/08 07:33:17;;;;;;;22.73;11.63;;;;;;;-0.61;83.62;95115.28;5111752;28;20093;-86
2023/12/08 07:35:43;;;;;;;22.10;11.65;;;;;;;0.31;83.53;95253.09;5093034;28;20035;-86
2023/12/08 07:38:08;;;;;;;23.20;11.60;;;;;;;0.27;83.40;95272.78;5095966;28;20027;-87
2023/12/08 07:40:34;;;;;;;23.23;11.00;;;;;;;0.60;83.24;95326.63;5101886;28;20472;-87
2023/12/08 07:43:00;;;;;;;22.20;10.63;;;;;;;-0.05;82.77;95211.13;5105731;28;20039;-85
2023/12/08 07:45:25;;;;;;;22.67;11.15;;;;;;;0.12;83.38;95227.91;5095557;28;20427;-87
2023/12/08 07:47:51;;;;;;;21.67;10.73;;;;;;;0.05;83.28;95224.53;5077623;28;20030;-86
2023/12/08 07:50:16;;;;;;;17.75;10.05;;;;;;;0.75;82.60;95327.97;5092855;28;20032;-86
2023/12/08 07:53:08;;;;;;;24.08;11.63;;;;;;;-0.80;83.20;95085.72;5103661;28;20136;-86
2023/12/08 07:55:33;;;;;;;25.42;12.10;;;;;;;0.12;83.57;95204.44;5074448;28;20028;-86
2023/12/08 07:57:59;;;;;;;23.20;11.32;;;;;;;-0.41;83.64;95120.44;5076798;28;20027;-86
2023/12/08 08:00:25;;;;;;;22.95;10.77;;;;;;;-0.46;82.43;95094.22;5080566;28;20042;-86
2023/12/08 08:02:50;;;;;;;21.58;11.23;;;;;;;-0.29;82.84;95123.19;5085881;28;20036;-87
2023/12/08 08:05:16;;;;;;;21.60;11.20;;;;;;;1.23;82.38;95358.81;5096627;28;20028;-85
2023/12/08 08:07:41;;;;;;;19.65;11.45;;;;;;;1.41;82.27;95379.00;5085388;28;20039;-86
2023/12/08 08:10:07;;;;;;;22.83;11.40;;;;;;;0.56;81.16;95228.88;5089190;28;20032;-85
2023/12/08 08:12:33;;;;;;;29.08;12.98;;;;;;;-0.26;82.09;95092.31;5086282;28;20417;-86
2023/12/08 08:14:59;;;;;;;27.67;12.35;;;;;;;0.95;82.81;95266.97;5074988;28;20467;-85
2023/12/08 08:17:24;;;;;;;22.40;11.95;;;;;;;1.51;82.79;95346.16;5042962;28;20027;-86
2023/12/08 08:19:50;;;;;;;24.00;11.77;;;;;;;1.20;81.33;95309.63;5045822;28;20028;-87
2023/12/08 08:22:16;;;;;;;21.08;10.30;;;;;;;0.10;81.61;95127.41;5052739;28;20114;-87
2023/12/08 08:24:42;;;;;;;21.25;11.27;;;;;;;0.86;80.71;95239.53;5032725;28;20176;-87
2023/12/08 08:27:08;;;;;;;26.45;12.88;;;;;;;0.66;81.24;95183.03;5046996;28;20115;-87
2023/12/08 08:29:34;;;;;;;21.52;11.05;;;;;;;1.70;80.98;95343.59;5074408;28;20035;-87
2023/12/08 08:31:59;;;;;;;25.85;10.50;;;;;;;0.96;80.03;95232.03;5074031;28;20024;-87
2023/12/08 08:34:25;;;;;;;21.25;11.38;;;;;;;0.66;80.79;95177.81;5051418;28;20053;-86
2023/12/08 08:36:51;;;;;;;23.50;11.88;;;;;;;0.52;80.36;95155.44;5048255;28;20505;-87
2023/12/08 08:39:16;;;;;;;24.42;13.07;;;;;;;1.39;80.44;95300.81;5047423;28;20033;-86
2023/12/08 08:41:45;;;;;;;24.65;12.32;;;;;;;1.26;81.12;95276.59;5042488;28;20040;-87
2023/12/08 08:44:10;;;;;;;21.17;11.65;;;;;;;-0.75;80.41;94931.47;5027134;28;20043;-86
2023/12/08 08:46:38;;;;;;;21.38;11.85;;;;;;;0.33;79.93;95109.41;5047935;28;20498;-88
2023/12/08 08:49:04;;;;;;;21.05;11.82;;;;;;;0.12;80.30;95088.88;5036688;28;20604;-87
2023/12/08 08:51:30;;;;;;;28.08;12.77;;;;;;;1.24;80.11;95268.16;5065896;28;20051;-86
2023/12/08 08:53:55;;;;;;;25.42;12.05;;;;;;;1.77;81.37;95323.41;5055360;28;20020;-86
2023/12/08 08:56:22;;;;;;;24.55;11.82;;;;;;;-0.10;80.35;95052.72;5053801;28;20041;-86
2023/12/08 08:58:47;;;;;;;25.20;12.80;;;;;;;-0.84;81.24;94954.34;5049986;28;20024;-85
2023/12/08 09:01:13;;;;;;;24.23;11.27;;;;;;;1.31;80.68;95261.88;5046725;28;20039;-87
2023/12/08 09:03:39;;;;;;;21.88;11.32;;;;;;;0.69;80.75;95182.59;5061587;28;20024;-86
2023/12/08 09:06:04;;;;;;;20.90;10.90;;;;;;;0.84;79.89;95226.69;5066812;28;20105;-86
2023/12/08 09:08:31;;;;;;;25.52;11.15;;;;;;;-0.82;80.13;94964.53;5073824;28;20094;-86
2023/12/08 09:10:58;;;;;;;26.83;11.63;;;;;;;0.51;81.05;95190.38;5068753;28;20040;-87
2023/12/08 09:13:33;;;;;;;21.80;10.75;;;;;;;0.83;81.29;95219.06;5061543;28;20035;-87
2023/12/08 09:15:58;;;;;;;22.98;12.48;;;;;;;1.46;81.24;95309.41;5088338;28;20138;-87
2023/12/08 09:18:24;;;;;;;21.52;11.95;;;;;;;0.85;80.97;95217.03;5081246;28;20490;-87
2023/12/08 09:20:50;;;;;;;21.63;11.75;;;;;;;1.11;81.30;95228.09;5088079;28;20043;-87
2023/12/08 09:23:15;;;;;;;19.92;11.30;;;;;;;0.73;80.41;95217.72;5084497;28;20040;-88
2023/12/08 09:25:41;;;;;;;25.83;10.57;;;;;;;0.60;81.06;95194.34;5086827;28;20367;-88
2023/12/08 09:28:09;;;;;;;20.50;10.45;;;;;;;0.85;81.00;95243.94;5086788;28;20036;-87
2023/12/08 09:30:34;;;;;;;22.77;12.35;;;;;;;0.79;80.44;95213.47;5085015;28;20055;-86
2023/12/08 09:33:00;;;;;;;21.38;10.52;;;;;;;1.38;81.13;95298.41;5083838;28;20316;-85
2023/12/08 09:35:25;;;;;;;22.27;9.98;;;;;;;1.43;80.49;95288.94;5088662;28;20302;-86
2023/12/08 09:37:51;;;;;;;21.70;11.13;;;;;;;1.22;79.79;95250.09;5080103;28;20084;-86
2023/12/08 09:40:16;;;;;;;18.63;9.80;;;;;;;1.13;79.94;95249.59;5086437;28;20101;-86
2023/12/08 09:42:58;;;;;;;23.58;11.40;;;;;;;1.27;80.59;95267.75;5082780;28;20480;-86
2023/12/08 09:45:24;;;;;;;21.20;11.05;;;;;;;1.46;80.35;95283.25;5085118;28;20058;-85
2023/12/08 09:47:53;;;;;;;22.52;11.27;;;;;;;0.94;79.96;95180.00;5077060;28;20044;-86
2023/12/08 09:50:19;;;;;;;23.35;11.55;;;;;;;1.54;79.57;95250.81;5078775;28;20123;-86
2023/12/08 09:52:45;;;;;;;24.50;12.65;;;;;;;0.97;79.22;95184.03;5087960;28;20043;-87
2023/12/08 09:55:12;;;;;;;22.77;11.73;;;;;;;1.11;80.00;95178.47;5086835;28;20044;-88
2023/12/08 09:57:41;;;;;;;25.65;12.48;;;;;;;1.82;79.28;95276.53;5074438;28;20097;-86
2023/12/08 10:00:11;;;;;;;20.95;11.02;;;;;;;0.98;78.87;95121.13;5078363;28;20368;-86
2023/12/08 10:02:36;;;;;;;25.35;13.23;;;;;;;1.90;78.66;95273.63;5100700;27;20040;-86
2023/12/08 10:05:02;;;;;;;23.70;12.10;;;;;;;0.98;78.89;95154.28;5073294;28;20040;-86
2023/12/08 10:07:32;;;;;;;22.50;11.13;;;;;;;1.73;80.77;95267.34;5098990;28;20039;-88
2023/12/08 10:09:59;;;;;;;21.77;10.77;;;;;;;1.45;80.54;95246.91;5084845;28;20107;-87
2023/12/08 10:12:25;;;;;;;25.92;11.98;;;;;;;0.60;82.47;95089.94;5077696;28;20052;-88
2023/12/08 10:14:56;;;;;;;23.92;13.27;;;;;;;1.49;82.78;95216.72;5079042;28;20447;-86
2023/12/08 10:17:22;;;;;;;26.42;12.35;;;;;;;1.72;80.83;95229.94;5084316;28;20375;-88
2023/12/08 10:19:48;;;;;;;22.02;11.13;;;;;;;1.75;80.30;95255.69;5089178;28;20254;-85
2023/12/08 10:22:13;;;;;;;22.92;11.80;;;;;;;1.25;81.12;95173.91;5090199;28;20036;-86
2023/12/08 10:24:41;;;;;;;20.08;11.20;;;;;;;1.47;80.88;95203.84;5088577;28;20188;-85
2023/12/08 10:27:08;;;;;;;25.58;11.95;;;;;;;0.37;81.87;95024.50;5086497;28;20028;-85
2023/12/08 10:29:34;;;;;;;27.25;12.57;;;;;;;1.88;81.96;95245.06;5076475;28;20035;-84
2023/12/08 10:32:04;;;;;;;23.35;11.07;;;;;;;1.92;80.48;95248.84;5102582;22;20058;-82
2023/12/08 10:34:30;;;;;;;30.55;11.35;;;;;;;1.87;80.00;95211.28;5040983;28;20063;-78
2023/12/08 10:36:56;;;;;;;23.92;11.55;;;;;;;1.89;79.21;95217.91;5065483;28;20039;-80
2023/12/08 10:39:23;;;;;;;25.98;13.32;;;;;;;1.94;80.20;95251.25;5075488;28;20328;-82
2023/12/08 10:41:52;;;;;;;24.10;12.20;;;;;;;2.12;80.33;95250.44;5082617;28;20031;-81
2023/12/08 10:44:21;;;;;;;23.27;12.38;;;;;;;1.97;79.81;95205.56;5010029;28;20185;-79
2023/12/08 10:46:50;;;;;;;25.85;12.05;;;;;;;1.97;79.65;95171.56;4998723;28;20201;-79
2023/12/08 10:49:21;;;;;;;22.50;11.95;;;;;;;2.38;79.30;95244.88;5067496;28;20028;-81
2023/12/08 10:51:50;;;;;;;21.85;10.48;;;;;;;2.48;78.58;95239.13;4999788;28;20039;-81
2023/12/08 10:54:17;;;;;;;24.92;12.00;;;;;;;2.24;78.12;95223.31;5042416;28;20061;-82
2023/12/08 10:56:45;;;;;;;20.42;11.27;;;;;;;2.15;77.96;95192.44;5066497;28;20035;-80
2023/12/08 10:59:11;;;;;;;28.20;12.25;;;;;;;2.07;78.38;95161.34;5069063;28;20042;-83
2023/12/08 11:01:38;;;;;;;26.35;11.75;;;;;;;2.19;77.71;95181.31;4997085;28;20049;-81
2023/12/08 11:04:08;;;;;;;22.10;12.10;;;;;;;2.63;77.78;95229.06;5007282;28;20229;-81
2023/12/08 11:06:42;;;;;;;30.23;13.45;;;;;;;2.62;76.96;95223.03;5052405;28;20031;-82
2023/12/08 11:09:12;;;;;;;26.65;12.18;;;;;;;2.50;77.54;95208.31;5077789;28;20059;-82
2023/12/08 11:11:47;;;;;;;24.30;12.05;;;;;;;1.81;76.36;95084.03;5008184;28;20388;-81
2023/12/08 11:14:46;;;;;;;25.88;11.52;;;;;;;2.13;75.60;95123.84;4993874;28;20034;-82
2023/12/08 11:17:33;;;;;;;26.92;12.63;;;;;;;2.68;75.17;95231.78;4995625;28;20412;-80
2023/12/08 11:20:00;;;;;;;26.05;11.93;;;;;;;2.78;75.67;95212.94;5087179;27;20115;-80